Time;durP1;ratioP1;P1;durP2;ratioP2;P2;SDS_P1;SDS_P2;PMS_P1;PMS_P2;Temp;Humidity;BMP_temperature;BMP_pressure;BME280_temperature;BME280_humidity;BME280_pressure;Samples;Min_cycle;Max_cycle;Signal;HPM_P1;HPM_P2
2024/04/07 00:00:19;;;;;;;15.88;3.63;;;17.80;76.50;;;;;;5043781;28;20017;-78
2024/04/07 00:02:46;;;;;;;13.40;2.97;;;17.70;76.70;;;;;;5060703;28;20252;-79
2024/04/07 00:05:12;;;;;;;9.70;3.08;;;17.70;76.90;;;;;;5064402;28;20024;-79
2024/04/07 00:07:37;;;;;;;10.52;3.30;;;17.60;77.30;;;;;;5057505;28;20043;-78
2024/04/07 00:10:04;;;;;;;10.57;2.85;;;17.60;77.70;;;;;;5057669;28;20401;-78
2024/04/07 00:12:29;;;;;;;11.38;3.00;;;17.60;78.80;;;;;;5051804;28;20129;-78
2024/04/07 00:14:55;;;;;;;9.13;2.95;;;17.50;79.30;;;;;;5056332;28;20074;-78
2024/04/07 00:17:21;;;;;;;10.85;3.10;;;17.50;80.10;;;;;;5047833;28;20083;-78
2024/04/07 00:19:47;;;;;;;12.98;2.90;;;17.30;81.00;;;;;;5063338;28;20077;-79
2024/04/07 00:22:12;;;;;;;9.00;2.90;;;17.30;81.70;;;;;;5056822;28;20412;-79
2024/04/07 00:24:38;;;;;;;9.02;3.20;;;17.20;81.90;;;;;;5060363;28;20056;-78
2024/04/07 00:27:04;;;;;;;7.70;3.13;;;17.10;82.70;;;;;;5067893;28;20092;-78
2024/04/07 00:29:30;;;;;;;8.85;2.85;;;17.10;83.30;;;;;;5063147;28;20028;-78
2024/04/07 00:31:56;;;;;;;7.30;2.63;;;17.00;83.60;;;;;;5043278;28;20080;-79
2024/04/07 00:34:22;;;;;;;9.93;2.92;;;16.80;83.20;;;;;;5058095;28;20511;-79
2024/04/07 00:36:48;;;;;;;9.50;2.88;;;16.80;83.80;;;;;;5059533;28;20040;-78
2024/04/07 00:39:13;;;;;;;10.18;2.67;;;16.80;83.90;;;;;;5059764;28;20071;-79
2024/04/07 00:41:39;;;;;;;8.02;2.10;;;16.70;84.00;;;;;;5060317;28;20090;-79
2024/04/07 00:44:05;;;;;;;6.35;2.38;;;16.50;83.80;;;;;;5059898;28;20024;-78
2024/04/07 00:46:30;;;;;;;7.28;2.38;;;16.40;83.80;;;;;;5061241;28;20033;-78
2024/04/07 00:48:56;;;;;;;10.55;2.70;;;16.40;83.50;;;;;;5061966;28;20020;-79
2024/04/07 00:51:23;;;;;;;8.10;2.60;;;16.30;83.60;;;;;;5061030;28;20037;-79
2024/04/07 00:53:49;;;;;;;7.50;2.10;;;16.30;84.10;;;;;;5060901;28;20036;-79
2024/04/07 00:56:14;;;;;;;7.45;2.03;;;16.20;84.50;;;;;;5063592;28;20036;-78
2024/04/07 00:58:41;;;;;;;9.38;2.33;;;16.10;84.50;;;;;;5062203;28;20032;-79
2024/04/07 01:01:07;;;;;;;6.25;2.20;;;16.10;84.40;;;;;;5056442;28;20557;-78
2024/04/07 01:03:33;;;;;;;5.80;1.92;;;16.10;84.90;;;;;;5061359;28;20635;-79
2024/04/07 01:05:58;;;;;;;6.72;2.30;;;16.10;84.70;;;;;;5057160;28;20825;-79
2024/04/07 01:08:24;;;;;;;4.35;1.67;;;16.00;84.90;;;;;;5051528;28;20036;-79
2024/04/07 01:10:51;;;;;;;6.53;1.95;;;16.00;84.70;;;;;;5053626;28;20668;-79
2024/04/07 01:13:17;;;;;;;6.28;2.15;;;16.00;84.80;;;;;;5060851;28;20040;-79
2024/04/07 01:15:43;;;;;;;4.55;1.90;;;16.00;84.50;;;;;;5059654;28;20021;-78
2024/04/07 01:18:09;;;;;;;4.70;1.70;;;15.90;84.60;;;;;;5061966;28;20127;-79
2024/04/07 01:20:35;;;;;;;4.53;1.85;;;15.90;84.50;;;;;;5060522;28;20033;-78
2024/04/07 01:23:03;;;;;;;5.63;2.13;;;15.80;84.50;;;;;;5060722;28;20036;-79
2024/04/07 01:25:29;;;;;;;7.63;1.95;;;15.80;84.50;;;;;;5060116;28;20191;-78
2024/04/07 01:27:55;;;;;;;5.22;1.90;;;15.70;84.30;;;;;;5059498;28;20469;-78
2024/04/07 01:30:24;;;;;;;5.07;1.75;;;15.80;84.40;;;;;;5060975;28;20031;-80
2024/04/07 01:32:50;;;;;;;5.90;1.73;;;15.70;84.40;;;;;;5071693;28;20347;-79
2024/04/07 01:35:16;;;;;;;6.07;1.65;;;15.70;84.30;;;;;;5049255;28;20040;-79
2024/04/07 01:37:41;;;;;;;5.95;2.00;;;15.70;84.30;;;;;;5051765;28;20109;-80
2024/04/07 01:40:09;;;;;;;4.28;1.50;;;15.80;84.40;;;;;;5052120;28;20024;-80
2024/04/07 01:42:35;;;;;;;5.63;1.88;;;15.70;84.20;;;;;;5058258;28;20036;-80
2024/04/07 01:45:01;;;;;;;4.85;1.55;;;15.70;84.10;;;;;;5061841;28;20024;-80
2024/04/07 01:47:27;;;;;;;6.68;1.83;;;15.70;84.00;;;;;;5058696;28;20618;-80
2024/04/07 01:49:53;;;;;;;6.95;1.70;;;15.70;83.90;;;;;;5061031;28;20032;-78
2024/04/07 01:52:19;;;;;;;5.63;1.80;;;15.70;83.70;;;;;;5056914;28;20040;-80
2024/04/07 01:54:44;;;;;;;4.82;1.30;;;15.70;83.60;;;;;;5068557;28;20059;-80
2024/04/07 01:57:11;;;;;;;4.60;1.73;;;15.70;83.50;;;;;;5059155;28;20090;-80
2024/04/07 01:59:36;;;;;;;5.63;1.25;;;15.60;83.20;;;;;;5059185;28;20020;-80
2024/04/07 02:02:02;;;;;;;6.88;1.63;;;15.60;83.10;;;;;;5059575;28;20047;-79
2024/04/07 02:04:28;;;;;;;4.60;1.77;;;15.70;83.10;;;;;;5063639;28;20733;-79
2024/04/07 02:06:54;;;;;;;4.93;1.40;;;15.70;83.20;;;;;;5057799;28;20456;-79
2024/04/07 02:09:20;;;;;;;5.03;1.65;;;15.70;83.40;;;;;;5060936;28;20108;-79
2024/04/07 02:11:46;;;;;;;6.03;1.63;;;15.70;83.40;;;;;;5056361;28;20132;-79
2024/04/07 02:14:12;;;;;;;4.28;1.70;;;15.60;83.60;;;;;;5060597;28;20036;-79
2024/04/07 02:16:38;;;;;;;5.55;1.30;;;15.60;83.80;;;;;;5057418;28;20035;-79
2024/04/07 02:19:03;;;;;;;7.47;1.48;;;15.60;83.80;;;;;;5060737;28;20327;-79
2024/04/07 02:21:29;;;;;;;3.95;1.42;;;15.50;83.70;;;;;;5057405;28;20391;-79
2024/04/07 02:23:55;;;;;;;3.53;1.42;;;15.50;83.60;;;;;;5058899;28;20679;-79
2024/04/07 02:26:21;;;;;;;4.15;1.30;;;15.50;83.60;;;;;;5057996;28;20036;-79
2024/04/07 02:28:47;;;;;;;5.72;1.80;;;15.40;84.00;;;;;;5060001;28;20562;-79
2024/04/07 02:31:13;;;;;;;5.43;2.20;;;15.40;84.50;;;;;;5063961;28;20024;-79
2024/04/07 02:33:39;;;;;;;5.20;1.58;;;15.30;85.10;;;;;;5058301;28;20068;-80
2024/04/07 02:36:06;;;;;;;3.58;1.38;;;15.20;85.20;;;;;;5075567;28;20032;-79
2024/04/07 02:38:32;;;;;;;3.63;1.30;;;15.20;84.60;;;;;;5060161;28;20041;-79
2024/04/07 02:40:57;;;;;;;3.10;1.27;;;15.20;84.50;;;;;;5058198;28;20385;-78
2024/04/07 02:43:23;;;;;;;3.78;1.38;;;15.20;84.20;;;;;;5067256;28;20029;-80
2024/04/07 02:48:33;;;;;;;4.18;1.40;;;15.20;83.90;;;;;;5057588;28;20044;-79
2024/04/07 02:50:59;;;;;;;3.53;1.38;;;15.20;83.30;;;;;;5054491;28;20033;-79
2024/04/07 02:53:24;;;;;;;3.47;1.42;;;15.20;83.40;;;;;;5054589;28;20377;-79
2024/04/07 02:55:50;;;;;;;5.10;1.50;;;15.30;83.40;;;;;;5058317;28;20051;-79
2024/04/07 02:58:16;;;;;;;4.20;1.20;;;15.30;83.30;;;;;;5053941;28;20025;-79
2024/04/07 03:00:42;;;;;;;3.78;1.50;;;15.20;83.40;;;;;;5058342;28;20958;-79
2024/04/07 03:03:08;;;;;;;6.75;1.42;;;15.30;83.40;;;;;;5057479;28;20041;-79
2024/04/07 03:05:37;;;;;;;4.40;1.15;;;15.20;83.40;;;;;;5061311;28;20028;-78
2024/04/07 03:08:03;;;;;;;6.93;1.65;;;15.30;83.20;;;;;;5052883;28;20132;-78
2024/04/07 03:10:29;;;;;;;3.88;1.40;;;15.30;83.10;;;;;;5056664;28;20019;-78
2024/04/07 03:12:55;;;;;;;5.10;1.40;;;15.30;83.40;;;;;;5041951;28;20025;-79
2024/04/07 03:15:20;;;;;;;4.85;1.30;;;15.20;83.70;;;;;;5046281;28;20377;-79
2024/04/07 03:17:46;;;;;;;4.88;1.38;;;15.20;83.90;;;;;;5049397;28;20048;-78
2024/04/07 03:20:12;;;;;;;5.93;1.60;;;15.10;84.00;;;;;;5046105;28;20149;-78
2024/04/07 03:22:38;;;;;;;5.18;1.50;;;15.20;83.90;;;;;;5057080;28;20039;-78
2024/04/07 03:25:04;;;;;;;6.10;1.80;;;15.10;84.30;;;;;;5056073;28;20048;-78
2024/04/07 03:27:30;;;;;;;3.50;1.45;;;15.10;84.60;;;;;;5057297;28;20036;-79
2024/04/07 03:29:55;;;;;;;3.63;1.50;;;15.10;84.50;;;;;;5041021;28;20025;-79
2024/04/07 03:32:21;;;;;;;6.63;1.65;;;15.10;85.00;;;;;;5055538;28;20036;-78
2024/04/07 03:34:46;;;;;;;5.85;1.55;;;15.00;85.10;;;;;;5057245;28;20540;-80
2024/04/07 03:37:13;;;;;;;5.25;1.70;;;15.00;85.20;;;;;;5056382;28;20392;-79
2024/04/07 03:39:39;;;;;;;4.43;1.65;;;15.00;85.20;;;;;;5058637;28;20025;-79
2024/04/07 03:42:08;;;;;;;4.40;1.60;;;15.00;85.40;;;;;;5057089;28;20041;-80
2024/04/07 03:44:34;;;;;;;6.38;1.80;;;14.90;85.50;;;;;;5059068;28;20029;-79
2024/04/07 03:46:59;;;;;;;5.63;1.58;;;14.90;85.70;;;;;;5058149;28;20044;-80
2024/04/07 03:49:25;;;;;;;5.90;1.63;;;14.90;85.80;;;;;;5058149;28;20066;-79
2024/04/07 03:51:52;;;;;;;6.78;1.80;;;14.90;85.90;;;;;;5056090;28;20453;-77
2024/04/07 03:54:18;;;;;;;7.05;1.60;;;14.80;86.10;;;;;;5059769;28;20734;-80
2024/04/07 03:56:44;;;;;;;6.25;1.77;;;14.80;86.40;;;;;;5056072;28;20036;-80
2024/04/07 03:59:10;;;;;;;7.53;1.75;;;14.70;86.50;;;;;;5056483;28;20104;-79
2024/04/07 04:01:38;;;;;;;3.40;1.70;;;14.70;86.50;;;;;;5056435;28;20037;-77
2024/04/07 04:04:04;;;;;;;7.47;2.65;;;14.70;86.70;;;;;;5056742;28;20395;-76
2024/04/07 04:06:29;;;;;;;7.05;1.70;;;14.70;86.80;;;;;;5057201;28;20051;-78
2024/04/07 04:08:55;;;;;;;6.70;1.77;;;14.70;86.80;;;;;;5056525;28;20752;-78
2024/04/07 04:11:21;;;;;;;5.32;1.67;;;14.70;86.90;;;;;;5057588;28;20453;-78
2024/04/07 04:13:49;;;;;;;4.43;1.83;;;14.60;87.00;;;;;;5059392;28;20029;-80
2024/04/07 04:16:19;;;;;;;6.57;1.88;;;14.60;87.20;;;;;;5061343;28;20040;-79
2024/04/07 04:18:44;;;;;;;4.90;1.90;;;14.60;87.10;;;;;;5060887;28;20036;-79
2024/04/07 04:21:11;;;;;;;7.55;2.10;;;14.60;87.30;;;;;;5061661;28;20099;-79
2024/04/07 04:23:38;;;;;;;6.28;2.03;;;14.60;87.40;;;;;;5061901;28;20129;-80
2024/04/07 04:26:05;;;;;;;5.68;1.98;;;14.50;87.30;;;;;;5061202;28;20067;-80
2024/04/07 04:28:30;;;;;;;7.72;2.08;;;14.60;87.40;;;;;;5044731;28;20058;-80
2024/04/07 04:30:59;;;;;;;7.10;1.90;;;14.50;87.30;;;;;;5061797;28;20480;-78
2024/04/07 04:33:26;;;;;;;6.78;1.75;;;14.50;87.40;;;;;;5060883;28;20025;-79
2024/04/07 04:35:52;;;;;;;7.53;2.20;;;14.50;87.40;;;;;;5048301;28;20592;-79
2024/04/07 04:38:18;;;;;;;6.03;1.85;;;14.50;87.60;;;;;;5056460;28;20477;-79
2024/04/07 04:40:54;;;;;;;5.40;1.80;;;14.50;87.50;;;;;;5053618;28;20013;-79
2024/04/07 04:43:21;;;;;;;4.82;1.77;;;14.50;87.40;;;;;;5056875;28;20044;-80
2024/04/07 04:45:49;;;;;;;4.93;1.80;;;14.40;87.50;;;;;;5060958;28;20028;-79
2024/04/07 04:48:15;;;;;;;6.97;2.15;;;14.40;87.60;;;;;;5060218;28;20435;-80
2024/04/07 04:50:40;;;;;;;4.82;1.90;;;14.40;87.70;;;;;;5052868;28;20124;-80
2024/04/07 04:53:06;;;;;;;8.20;2.20;;;14.30;87.80;;;;;;5061779;28;20040;-80
2024/04/07 04:55:32;;;;;;;5.68;2.35;;;14.30;87.80;;;;;;5060861;28;20106;-79
2024/04/07 04:57:58;;;;;;;7.22;2.17;;;14.20;88.00;;;;;;5060654;28;20045;-78
2024/04/07 05:00:27;;;;;;;9.70;2.55;;;14.20;88.00;;;;;;5061777;28;20476;-79
2024/04/07 05:02:53;;;;;;;5.60;2.03;;;14.20;88.10;;;;;;5042354;28;20036;-78
2024/04/07 05:05:18;;;;;;;6.15;1.92;;;14.20;88.30;;;;;;5063321;28;20039;-78
2024/04/07 05:07:44;;;;;;;5.55;2.30;;;14.10;88.30;;;;;;5057968;28;20116;-78
2024/04/07 05:10:09;;;;;;;8.45;2.22;;;14.10;88.30;;;;;;5062928;28;20396;-78
2024/04/07 05:12:35;;;;;;;7.10;2.20;;;14.10;88.30;;;;;;5059564;28;20090;-78
2024/04/07 05:15:01;;;;;;;8.40;2.33;;;14.10;88.40;;;;;;5061044;28;20020;-80
2024/04/07 05:17:26;;;;;;;8.48;2.25;;;14.10;88.50;;;;;;5057600;28;20031;-80
2024/04/07 05:19:52;;;;;;;8.20;2.33;;;14.10;88.60;;;;;;5061067;28;20108;-79
2024/04/07 05:22:17;;;;;;;8.45;2.45;;;14.10;88.50;;;;;;5058015;28;20048;-80
2024/04/07 05:24:43;;;;;;;8.60;2.42;;;14.10;88.40;;;;;;5062122;28;20023;-79
2024/04/07 05:27:09;;;;;;;7.88;2.00;;;14.10;88.20;;;;;;5060184;28;20044;-79
2024/04/07 05:29:35;;;;;;;8.15;2.40;;;14.10;88.30;;;;;;5060902;28;20028;-79
2024/04/07 05:32:00;;;;;;;8.32;2.33;;;14.10;88.30;;;;;;5061981;28;20458;-78
2024/04/07 05:34:28;;;;;;;7.10;2.03;;;14.10;88.20;;;;;;5055901;28;20432;-79
2024/04/07 05:36:54;;;;;;;7.90;2.03;;;14.10;88.20;;;;;;5059649;28;20049;-77
2024/04/07 05:39:20;;;;;;;5.95;2.10;;;14.10;88.10;;;;;;5058649;28;20094;-76
2024/04/07 05:41:47;;;;;;;6.10;2.47;;;14.10;88.10;;;;;;5059350;28;20043;-76
2024/04/07 05:44:13;;;;;;;6.65;2.17;;;14.10;88.10;;;;;;5060719;28;20021;-78
2024/04/07 05:46:38;;;;;;;8.48;1.98;;;14.10;88.10;;;;;;5058594;28;20093;-74
2024/04/07 05:49:04;;;;;;;5.93;2.22;;;14.10;88.30;;;;;;5057149;28;20090;-74
2024/04/07 05:51:30;;;;;;;5.22;1.90;;;14.10;88.30;;;;;;5054271;28;20026;-75
2024/04/07 05:53:55;;;;;;;6.60;2.00;;;14.10;88.40;;;;;;5061057;28;20079;-78
2024/04/07 05:56:21;;;;;;;5.97;1.70;;;14.10;88.40;;;;;;5060408;28;20037;-78
2024/04/07 05:58:46;;;;;;;7.55;2.40;;;14.10;88.30;;;;;;5060337;28;20025;-77
2024/04/07 06:01:12;;;;;;;5.90;2.00;;;14.10;88.30;;;;;;5059510;28;20042;-77
2024/04/07 06:03:38;;;;;;;6.90;1.92;;;14.20;88.10;;;;;;5054150;28;20116;-77
2024/04/07 06:06:04;;;;;;;7.10;1.80;;;14.20;88.00;;;;;;5059552;28;20063;-78
2024/04/07 06:08:29;;;;;;;7.97;2.30;;;14.20;88.00;;;;;;5057616;28;20813;-77
2024/04/07 06:10:55;;;;;;;7.32;2.40;;;14.20;88.00;;;;;;5059032;28;20033;-76
2024/04/07 06:13:21;;;;;;;9.93;2.28;;;14.20;88.00;;;;;;5059364;28;20474;-76
2024/04/07 06:15:46;;;;;;;7.20;2.30;;;14.20;87.90;;;;;;5056081;28;20025;-76
2024/04/07 06:18:12;;;;;;;6.15;2.10;;;14.20;87.90;;;;;;5040757;28;20033;-76
2024/04/07 06:20:38;;;;;;;7.03;2.30;;;14.30;87.80;;;;;;5058209;28;20354;-77
2024/04/07 06:23:04;;;;;;;9.55;2.65;;;14.40;87.80;;;;;;5054384;28;20024;-78
2024/04/07 06:25:29;;;;;;;6.00;2.10;;;14.40;87.60;;;;;;5058662;28;20504;-77
2024/04/07 06:27:56;;;;;;;7.35;1.83;;;14.40;87.60;;;;;;5066200;28;20041;-76
2024/04/07 06:30:21;;;;;;;6.88;1.75;;;14.50;87.60;;;;;;5057966;28;20092;-76
2024/04/07 06:32:47;;;;;;;6.90;2.08;;;14.60;87.50;;;;;;5058615;28;20151;-76
2024/04/07 06:35:12;;;;;;;8.30;2.08;;;14.60;87.30;;;;;;5059759;28;20029;-77
2024/04/07 06:37:38;;;;;;;6.90;2.00;;;14.70;87.00;;;;;;5056518;28;20040;-77
2024/04/07 06:40:04;;;;;;;9.48;2.47;;;14.70;86.80;;;;;;5060586;28;20103;-78
2024/04/07 06:42:31;;;;;;;8.38;2.28;;;14.80;86.70;;;;;;5062136;28;20028;-76
2024/04/07 06:44:59;;;;;;;4.53;1.85;;;14.90;86.60;;;;;;5058520;28;20711;-78
2024/04/07 06:47:26;;;;;;;9.52;2.05;;;14.90;86.40;;;;;;5039995;28;20380;-77
2024/04/07 06:49:53;;;;;;;6.47;1.80;;;15.00;86.30;;;;;;5056993;28;20036;-76
2024/04/07 06:52:22;;;;;;;8.82;2.22;;;15.00;86.20;;;;;;5058254;28;20461;-78
2024/04/07 06:54:48;;;;;;;7.53;2.05;;;15.00;86.00;;;;;;5058152;28;20047;-77
2024/04/07 06:57:15;;;;;;;5.32;2.00;;;15.10;85.80;;;;;;5057002;28;20501;-77
2024/04/07 06:59:40;;;;;;;10.35;2.15;;;15.20;85.50;;;;;;5055810;28;20040;-79
2024/04/07 07:02:06;;;;;;;6.78;2.03;;;15.30;85.50;;;;;;5062702;28;20024;-78
2024/04/07 07:04:32;;;;;;;7.82;1.90;;;15.50;85.20;;;;;;5055451;28;20121;-76
2024/04/07 07:06:58;;;;;;;9.43;1.90;;;15.60;84.30;;;;;;5058322;28;20163;-77
2024/04/07 07:09:23;;;;;;;4.97;2.00;;;15.70;84.00;;;;;;5056996;28;20051;-77
2024/04/07 07:11:49;;;;;;;7.32;2.30;;;15.80;83.80;;;;;;5039867;28;20032;-77
2024/04/07 07:14:15;;;;;;;7.22;2.10;;;16.00;83.10;;;;;;5059313;28;20475;-76
2024/04/07 07:16:40;;;;;;;7.78;2.17;;;16.10;82.90;;;;;;5057575;28;20044;-77
2024/04/07 07:19:06;;;;;;;5.07;1.80;;;16.10;82.60;;;;;;5057029;28;20105;-77
2024/04/07 07:21:32;;;;;;;8.18;2.00;;;16.20;81.90;;;;;;5057413;28;20028;-76
2024/04/07 07:23:57;;;;;;;5.53;1.85;;;16.30;82.00;;;;;;5059307;28;20029;-76
2024/04/07 07:26:23;;;;;;;5.43;1.65;;;16.40;81.40;;;;;;5058967;28;20040;-75
2024/04/07 07:28:49;;;;;;;6.13;1.73;;;16.60;81.30;;;;;;5057997;28;20217;-76
2024/04/07 07:31:15;;;;;;;6.80;1.77;;;16.60;80.80;;;;;;5057930;28;20040;-78
2024/04/07 07:33:41;;;;;;;6.13;1.60;;;16.80;80.30;;;;;;5059197;28;20025;-75
2024/04/07 07:36:06;;;;;;;10.27;2.17;;;16.90;79.40;;;;;;5056488;28;20040;-76
2024/04/07 07:38:32;;;;;;;6.28;1.67;;;17.00;79.20;;;;;;5046371;28;20504;-75
2024/04/07 07:40:59;;;;;;;6.07;1.70;;;17.10;79.00;;;;;;5059107;28;20037;-77
2024/04/07 07:43:25;;;;;;;9.23;1.80;;;17.20;78.00;;;;;;5057210;28;20025;-77
2024/04/07 07:45:50;;;;;;;7.80;2.40;;;17.20;77.70;;;;;;5054566;28;20787;-77
2024/04/07 07:48:16;;;;;;;6.60;1.90;;;17.30;77.60;;;;;;5061140;28;20039;-76
2024/04/07 07:50:45;;;;;;;5.80;1.60;;;17.30;77.50;;;;;;5062304;28;20036;-74
2024/04/07 07:53:10;;;;;;;8.25;1.92;;;17.50;76.70;;;;;;5060685;28;20032;-75
2024/04/07 07:55:36;;;;;;;8.48;1.70;;;17.60;76.30;;;;;;5051685;28;20082;-76
2024/04/07 07:58:02;;;;;;;6.53;1.50;;;17.60;76.50;;;;;;5061809;28;20050;-76
2024/04/07 08:00:29;;;;;;;5.20;1.60;;;17.70;76.00;;;;;;5051980;28;20667;-77
2024/04/07 08:02:54;;;;;;;4.75;1.65;;;17.90;75.60;;;;;;5052197;28;20542;-76
2024/04/07 08:05:20;;;;;;;7.40;1.75;;;17.90;74.60;;;;;;5061213;28;20612;-76
2024/04/07 08:07:46;;;;;;;7.20;1.92;;;18.00;74.10;;;;;;5052708;28;20388;-78
2024/04/07 08:10:12;;;;;;;7.28;1.88;;;18.10;73.60;;;;;;5061942;28;20025;-76
2024/04/07 08:12:40;;;;;;;7.63;1.75;;;18.10;73.20;;;;;;5062491;28;20119;-75
2024/04/07 08:15:06;;;;;;;6.75;2.13;;;17.90;73.00;;;;;;5062271;28;20040;-77
2024/04/07 08:17:32;;;;;;;5.85;1.90;;;18.10;73.80;;;;;;5057419;28;20386;-76
2024/04/07 08:19:58;;;;;;;6.43;1.60;;;18.10;72.90;;;;;;5062080;28;20008;-76
2024/04/07 08:22:23;;;;;;;8.13;2.03;;;17.70;73.10;;;;;;5060268;28;20078;-77
2024/04/07 08:24:49;;;;;;;6.18;1.60;;;17.70;73.40;;;;;;5059907;28;20032;-75
2024/04/07 08:27:15;;;;;;;6.70;1.60;;;17.80;72.90;;;;;;5062191;28;20577;-76
2024/04/07 08:29:41;;;;;;;5.13;1.50;;;18.00;73.60;;;;;;5054033;28;20068;-77
2024/04/07 08:32:07;;;;;;;5.22;1.60;;;18.10;73.40;;;;;;5060465;28;20404;-74
2024/04/07 08:34:32;;;;;;;8.10;1.90;;;18.10;72.40;;;;;;5061070;28;20056;-74
2024/04/07 08:36:58;;;;;;;6.55;1.42;;;18.30;71.60;;;;;;5059046;28;20037;-75
2024/04/07 08:39:24;;;;;;;4.72;1.75;;;18.60;69.90;;;;;;5066651;28;20017;-75
2024/04/07 08:41:50;;;;;;;10.35;2.10;;;18.80;69.50;;;;;;5057588;28;20109;-74
2024/04/07 08:44:18;;;;;;;6.57;1.58;;;18.90;68.40;;;;;;5061125;28;20431;-77
2024/04/07 08:46:45;;;;;;;6.68;2.30;;;19.10;67.70;;;;;;5042729;28;20036;-80
2024/04/07 08:49:13;;;;;;;6.85;1.55;;;19.10;66.70;;;;;;5061727;28;20104;-77
2024/04/07 08:51:41;;;;;;;8.02;1.75;;;19.20;67.20;;;;;;5055759;28;20033;-76
2024/04/07 08:54:07;;;;;;;7.68;2.10;;;19.20;65.50;;;;;;5060277;28;20052;-76
2024/04/07 08:56:38;;;;;;;7.43;1.67;;;19.30;66.50;;;;;;5059852;28;20036;-77
2024/04/07 08:59:07;;;;;;;6.47;1.55;;;19.60;66.00;;;;;;5041195;28;20041;-77
2024/04/07 09:01:37;;;;;;;7.00;1.92;;;19.70;65.40;;;;;;5061153;28;20037;-78
2024/04/07 09:04:02;;;;;;;4.13;1.45;;;19.70;65.50;;;;;;5042920;28;20503;-78
2024/04/07 09:06:29;;;;;;;3.95;1.48;;;19.70;66.30;;;;;;5061120;28;20151;-79
2024/04/07 09:08:58;;;;;;;7.22;1.77;;;19.70;65.10;;;;;;5063292;28;20070;-76
2024/04/07 09:11:25;;;;;;;5.43;1.77;;;19.80;64.90;;;;;;5058515;28;20041;-76
2024/04/07 09:13:50;;;;;;;5.18;1.50;;;19.70;65.10;;;;;;5058376;28;20050;-77
2024/04/07 09:16:16;;;;;;;6.60;1.67;;;19.70;63.40;;;;;;5059481;28;20461;-74
2024/04/07 09:18:42;;;;;;;8.45;1.83;;;19.80;63.40;;;;;;5058875;28;20272;-76
2024/04/07 09:21:19;;;;;;;4.97;1.58;;;20.10;63.90;;;;;;5058744;28;20529;-74
2024/04/07 09:23:46;;;;;;;6.90;1.92;;;20.40;63.80;;;;;;5055587;28;20036;-75
2024/04/07 09:26:13;;;;;;;9.95;2.53;;;20.60;63.50;;;;;;5063901;28;20560;-75
2024/04/07 09:28:38;;;;;;;4.82;1.60;;;20.80;62.20;;;;;;5056991;28;20024;-76
2024/04/07 09:31:04;;;;;;;6.07;1.70;;;20.90;62.10;;;;;;5044102;28;20108;-80
2024/04/07 09:33:31;;;;;;;6.80;2.35;;;20.90;60.60;;;;;;5061570;28;20033;-78
2024/04/07 09:35:59;;;;;;;7.25;1.70;;;20.80;59.10;;;;;;5058725;28;20099;-76
2024/04/07 09:38:25;;;;;;;4.85;1.80;;;20.50;59.60;;;;;;5063716;28;20040;-79
2024/04/07 09:40:56;;;;;;;5.57;1.55;;;20.50;59.90;;;;;;5052480;28;21845;-76
2024/04/07 09:43:24;;;;;;;5.50;1.40;;;20.60;58.40;;;;;;5058234;28;20052;-77
2024/04/07 09:45:52;;;;;;;8.30;1.52;;;20.60;59.10;;;;;;5045159;28;20530;-76
2024/04/07 09:48:20;;;;;;;6.30;1.33;;;20.60;59.20;;;;;;5061028;28;20032;-75
2024/04/07 09:50:58;;;;;;;7.38;1.55;;;20.60;59.60;;;;;;5061983;28;20157;-77
2024/04/07 09:53:35;;;;;;;5.75;1.55;;;20.70;58.10;;;;;;5055173;28;20039;-75
2024/04/07 09:56:03;;;;;;;8.65;1.85;;;20.70;58.00;;;;;;5057038;28;20044;-77
2024/04/07 09:58:30;;;;;;;4.53;1.30;;;20.70;58.10;;;;;;5054857;28;20611;-74
2024/04/07 10:00:56;;;;;;;5.32;1.50;;;20.80;58.80;;;;;;5055385;28;20033;-75
2024/04/07 10:03:23;;;;;;;5.03;1.30;;;20.80;59.00;;;;;;5059316;28;20041;-74
2024/04/07 10:05:49;;;;;;;5.57;1.35;;;20.80;58.50;;;;;;5058295;28;20040;-75
2024/04/07 10:08:15;;;;;;;6.45;1.70;;;21.00;59.20;;;;;;5062028;28;20425;-75
2024/04/07 10:10:41;;;;;;;7.45;1.48;;;21.30;58.00;;;;;;5058328;28;20809;-75
2024/04/07 10:13:08;;;;;;;4.93;1.40;;;21.40;57.30;;;;;;5060350;28;20032;-75
2024/04/07 10:15:36;;;;;;;6.00;1.52;;;21.40;56.00;;;;;;5053062;28;20025;-75
2024/04/07 10:18:18;;;;;;;6.10;1.60;;;21.40;55.40;;;;;;5037299;28;20652;-75
2024/04/07 10:20:49;;;;;;;4.65;1.20;;;21.30;54.40;;;;;;5055432;28;20055;-75
2024/04/07 10:23:15;;;;;;;5.40;1.70;;;21.40;53.60;;;;;;5056417;28;20036;-75
2024/04/07 10:25:49;;;;;;;4.57;1.15;;;21.30;54.10;;;;;;5050903;28;20052;-74
2024/04/07 10:28:16;;;;;;;5.07;1.25;;;21.50;52.80;;;;;;5055400;28;20048;-75
2024/04/07 10:30:52;;;;;;;4.57;1.25;;;21.50;52.80;;;;;;5055916;28;20012;-75
2024/04/07 10:33:21;;;;;;;5.90;1.42;;;21.50;52.50;;;;;;5053442;28;20152;-75
2024/04/07 10:36:00;;;;;;;4.45;1.30;;;21.60;53.20;;;;;;5054866;28;20086;-76
2024/04/07 10:38:25;;;;;;;4.55;1.55;;;21.70;53.00;;;;;;5041023;28;20044;-76
2024/04/07 10:40:55;;;;;;;3.72;1.10;;;21.90;50.80;;;;;;5049416;28;20362;-74
2024/04/07 10:43:21;;;;;;;5.65;1.25;;;21.80;51.80;;;;;;5057645;28;20139;-75
2024/04/07 10:45:48;;;;;;;4.28;1.20;;;21.70;52.30;;;;;;5058346;28;20536;-75
2024/04/07 10:48:13;;;;;;;4.78;1.50;;;21.90;50.70;;;;;;5057261;28;20036;-75
2024/04/07 10:50:40;;;;;;;5.20;1.52;;;21.90;51.10;;;;;;5059119;28;20031;-74
2024/04/07 10:53:08;;;;;;;3.53;1.00;;;21.90;50.60;;;;;;5056459;28;20040;-75
2024/04/07 10:55:34;;;;;;;6.18;1.45;;;21.70;50.30;;;;;;5058008;28;20027;-74
2024/04/07 10:58:00;;;;;;;4.57;1.30;;;21.70;51.30;;;;;;5056661;28;20037;-72
2024/04/07 11:00:26;;;;;;;5.13;1.40;;;21.90;51.70;;;;;;5054491;28;20021;-72
2024/04/07 11:02:53;;;;;;;4.75;1.15;;;22.00;52.30;;;;;;5056611;28;20480;-73
2024/04/07 11:05:19;;;;;;;4.50;1.40;;;22.00;51.90;;;;;;5047136;28;20089;-73
2024/04/07 11:07:46;;;;;;;3.33;1.20;;;22.10;51.70;;;;;;5057288;28;20036;-73
2024/04/07 11:10:11;;;;;;;6.10;1.45;;;22.20;52.00;;;;;;5057515;28;20795;-73
2024/04/07 11:12:43;;;;;;;5.10;1.25;;;22.30;51.30;;;;;;5041625;28;20037;-73
2024/04/07 11:15:16;;;;;;;4.57;1.45;;;22.10;50.90;;;;;;5052064;28;20028;-73
2024/04/07 11:17:42;;;;;;;3.90;1.45;;;22.30;51.20;;;;;;5057505;28;20086;-73
2024/04/07 11:20:11;;;;;;;4.78;1.15;;;22.10;50.10;;;;;;5038604;28;20036;-73
2024/04/07 11:22:37;;;;;;;5.18;1.23;;;22.20;50.60;;;;;;5053236;28;20025;-73
2024/04/07 11:25:03;;;;;;;3.95;1.10;;;22.10;50.70;;;;;;5039410;28;20127;-73
2024/04/07 11:27:29;;;;;;;4.90;1.50;;;22.10;49.40;;;;;;5056200;28;20064;-73
2024/04/07 11:29:54;;;;;;;4.10;1.08;;;22.10;50.50;;;;;;5055007;28;20067;-74
2024/04/07 11:32:20;;;;;;;4.28;1.27;;;22.20;50.40;;;;;;5054801;28;20400;-74
2024/04/07 11:34:45;;;;;;;2.83;1.10;;;22.20;50.30;;;;;;5052132;28;20040;-73
2024/04/07 11:37:11;;;;;;;3.60;1.13;;;22.30;50.30;;;;;;5054945;28;20555;-73
2024/04/07 11:39:37;;;;;;;4.78;1.42;;;22.40;50.40;;;;;;5057608;28;20039;-73
2024/04/07 11:42:05;;;;;;;3.35;1.10;;;22.40;50.00;;;;;;5056879;28;20044;-72
2024/04/07 11:44:31;;;;;;;4.70;1.25;;;22.40;50.20;;;;;;5057346;28;20036;-74
2024/04/07 11:46:57;;;;;;;5.05;1.45;;;22.20;50.40;;;;;;5055557;28;20037;-73
2024/04/07 11:49:23;;;;;;;4.22;1.20;;;22.10;51.00;;;;;;5055305;28;20492;-73
2024/04/07 11:51:49;;;;;;;3.15;1.10;;;22.30;51.90;;;;;;5056712;28;20416;-73
2024/04/07 11:54:15;;;;;;;3.28;1.00;;;22.40;50.70;;;;;;5055036;28;20040;-74
2024/04/07 11:56:41;;;;;;;2.35;0.98;;;22.30;50.00;;;;;;5055493;28;20037;-73
2024/04/07 11:59:06;;;;;;;3.67;1.10;;;22.40;49.90;;;;;;5059639;28;20077;-73
2024/04/07 12:01:32;;;;;;;3.47;1.13;;;22.50;49.70;;;;;;5058513;28;20036;-73
2024/04/07 12:03:59;;;;;;;3.88;1.48;;;22.60;50.20;;;;;;5051304;28;20044;-72
2024/04/07 12:06:25;;;;;;;5.45;1.30;;;22.50;49.20;;;;;;5052420;28;20059;-72
2024/04/07 12:08:51;;;;;;;3.88;1.23;;;22.30;49.40;;;;;;5054315;28;20123;-72
2024/04/07 12:11:16;;;;;;;4.60;1.20;;;22.40;48.80;;;;;;5037160;28;20155;-73
2024/04/07 12:13:43;;;;;;;2.17;0.95;;;22.50;48.60;;;;;;5054657;28;20138;-72
2024/04/07 12:16:08;;;;;;;5.78;1.35;;;22.60;49.00;;;;;;5054302;28;20044;-73
2024/04/07 12:18:34;;;;;;;2.58;0.90;;;22.70;48.60;;;;;;5054181;28;20040;-72
2024/04/07 12:21:00;;;;;;;4.55;1.60;;;22.70;47.60;;;;;;5055203;28;20725;-71
2024/04/07 12:23:25;;;;;;;5.95;1.20;;;22.80;48.10;;;;;;5053819;28;20032;-73
2024/04/07 12:25:51;;;;;;;5.38;1.10;;;22.60;48.80;;;;;;5053317;28;20117;-72
2024/04/07 12:28:17;;;;;;;5.70;1.45;;;22.80;49.20;;;;;;5051054;28;20063;-73
2024/04/07 12:30:44;;;;;;;5.57;1.15;;;23.10;47.10;;;;;;5053882;28;20031;-73
2024/04/07 12:33:10;;;;;;;3.97;1.20;;;23.30;46.50;;;;;;5054883;28;20059;-72
2024/04/07 12:35:36;;;;;;;5.80;1.15;;;23.50;46.60;;;;;;5056100;28;20021;-73
2024/04/07 12:38:03;;;;;;;4.80;1.38;;;23.80;47.10;;;;;;5059614;28;20115;-72
2024/04/07 12:40:29;;;;;;;4.55;1.50;;;24.00;46.60;;;;;;5061385;28;20020;-73
2024/04/07 12:42:54;;;;;;;2.15;0.95;;;24.00;45.70;;;;;;5060377;28;20037;-72